Cades, SC (29518)

2:52 AM EST on February 13, 2016 (GMT -0500)
Williamsburg County | | Change Station
CLOSE
Current Station
Airport
Location: Kingstree,
Elevation: 66 ft
Nearby Weather Stations
Active Advisory: Flood Warning

Elev 66 ft 33.72 °N, 79.86 °W | Updated 17 minutes ago

Clear
Clear
28 °F
Feels Like 28 °F
N
0
Wind Variable Wind from North

Today
High -- | Low -- °F
--% Chance of Precip.
Yesterday
High -- | Low -- °F
Precip. -- in
Pressure 30.09 in
Visibility 10.0 miles
Clouds Clear
Dew Point 27 °F
Humidity 93%
Rainfall 0.00 in
Snow Depth Not available.
7:06 AM 6:01 PM
Waxing Crescent, 28% visible
METAR KCKI 130735Z AUTO 00000KT 10SM CLR M02/M03 A3009 RMK AO2
Pressure 30.09 in
Visibility 10.0 miles
Clouds Clear
Dew Point 27 °F
Humidity 93%
Rainfall 0.00 in
Snow Depth Not available.
7:06 AM 6:01 PM
Waxing Crescent, 28% visible
METAR KCKI 130735Z AUTO 00000KT 10SM CLR M02/M03 A3009 RMK AO2

10-Day Weather Forecast

Almanac

Astronomy

Feb. 13, 2016 Rise Set
Actual Time
Civil Twilight
Nautical Twilight
Astronomical Twilight
Moon
Length of Visible Light
Length of Day
Tomorrow will be .
, % of the Moon is Illuminated

Today's Extremes

State Highs State Lows

Community

WunderPhotos

Upload Photos

1,892,526 photos uploaded!

WunderBlog® & News

Nearby

Air Quality

  Air Quality AQ Index Pollutant
Not available.

Snow Depth

Station Depth Elevation

Earthquake Activity

City Distance Mag. Time & Date
Minimum magnitude displayed is 2.5.

Coastal Water Temperatures

Place Temperature

Stations

Nearby Weather Stations

Station Location Temp. Windchill Dew Point Humidity Wind Precip. Elev Updated Type
                   

Watches & Warnings

Flood Warning
Issued: 8:01 PM EST Feb. 12, 2016 – National Weather Service

The Flood Warning continues for
the Santee river near Jamestown.
* At 7 PM Friday the stage was 13.6 feet.
* Flood stage is 10.0 feet.
* Minor flooding is occurring.
* Forecast, the river will continue to fall.
* At 12.0 feet, several dirt logging roads are impassable.


Lat... Lon 3347 8002 3354 7998 3325 7937 3321 7938
          3320 7951 3329 7976